createdAt,value
2022-12-22T00:01:58.050Z,15.88
2022-12-22T00:04:44.167Z,15.68
2022-12-22T00:07:30.170Z,4.93
2022-12-22T00:10:15.927Z,18.15
2022-12-22T00:13:01.992Z,18.02
2022-12-22T00:15:51.377Z,16.40
2022-12-22T00:18:37.737Z,6.78
2022-12-22T00:21:23.792Z,13.65
2022-12-22T00:24:10.018Z,11.98
2022-12-22T00:26:55.978Z,16.40
2022-12-22T00:29:41.982Z,9.48
2022-12-22T00:32:32.699Z,12.10
2022-12-22T00:35:19.585Z,7.35
2022-12-22T00:38:05.523Z,11.02
2022-12-22T00:40:51.551Z,4.97
2022-12-22T00:43:37.355Z,10.30
2022-12-22T00:46:23.713Z,11.27
2022-12-22T00:49:10.126Z,18.67
2022-12-22T00:51:56.049Z,13.15
2022-12-22T00:54:42.777Z,12.73
2022-12-22T00:57:40.101Z,11.05
2022-12-22T01:00:33.637Z,13.13
2022-12-22T01:03:19.879Z,19.00
2022-12-22T01:06:06.201Z,15.30
2022-12-22T01:08:54.018Z,14.35
2022-12-22T01:11:40.140Z,13.75
2022-12-22T01:14:34.583Z,12.25
2022-12-22T01:17:20.812Z,26.73
2022-12-22T01:20:06.843Z,14.15
2022-12-22T01:22:53.031Z,16.20
2022-12-22T01:25:39.315Z,16.85
2022-12-22T01:28:25.569Z,15.10
2022-12-22T01:31:11.789Z,18.10
2022-12-22T01:33:57.868Z,12.68
2022-12-22T01:36:43.829Z,12.45
2022-12-22T01:39:30.127Z,11.73
2022-12-22T01:42:16.174Z,15.85
2022-12-22T01:45:02.515Z,12.20
2022-12-22T01:47:48.678Z,17.58
2022-12-22T01:50:54.824Z,13.10
2022-12-22T01:53:46.561Z,14.00
2022-12-22T01:56:32.840Z,12.45
2022-12-22T01:59:22.736Z,11.00
2022-12-22T02:02:08.766Z,14.88
2022-12-22T02:04:58.950Z,6.28
2022-12-22T02:07:54.058Z,13.20
2022-12-22T02:11:14.639Z,17.75
2022-12-22T02:14:37.264Z,20.80
2022-12-22T02:17:41.693Z,18.00
2022-12-22T02:21:07.391Z,11.65
2022-12-22T02:24:14.884Z,14.65
2022-12-22T02:27:05.272Z,22.27
2022-12-22T02:29:58.471Z,14.70
2022-12-22T02:32:44.949Z,18.40
2022-12-22T02:35:35.776Z,14.05
2022-12-22T02:38:36.906Z,14.95
2022-12-22T02:42:08.721Z,15.32
2022-12-22T02:45:18.678Z,16.42
2022-12-22T02:48:13.168Z,16.35
2022-12-22T02:51:05.518Z,20.20
2022-12-22T02:53:52.038Z,21.23
2022-12-22T02:56:38.650Z,14.07
2022-12-22T02:59:24.506Z,17.10
2022-12-22T03:02:11.035Z,18.92
2022-12-22T03:04:57.475Z,18.42
2022-12-22T03:07:43.446Z,11.80
2022-12-22T03:10:29.391Z,16.95
2022-12-22T03:13:18.372Z,17.75
2022-12-22T03:16:04.527Z,14.25
2022-12-22T03:18:50.819Z,24.17
2022-12-22T03:21:37.246Z,25.05
2022-12-22T03:24:23.511Z,23.13
2022-12-22T03:26:50.985Z,20.90
2022-12-22T03:29:18.677Z,27.63
2022-12-22T03:31:46.210Z,14.60
2022-12-22T03:34:13.875Z,18.92
2022-12-22T03:36:41.322Z,19.65
2022-12-22T03:39:10.043Z,21.83
2022-12-22T03:41:56.251Z,19.05
2022-12-22T03:44:42.185Z,30.17
2022-12-22T03:47:09.706Z,15.32
2022-12-22T03:49:37.293Z,26.33
2022-12-22T03:54:33.690Z,17.25
2022-12-22T03:57:01.048Z,24.67
2022-12-22T03:59:28.486Z,25.23
2022-12-22T04:01:56.086Z,22.75
2022-12-22T04:04:26.041Z,21.27
2022-12-22T04:06:54.542Z,27.80
2022-12-22T04:09:22.845Z,25.33
2022-12-22T04:12:09.353Z,28.23
2022-12-22T04:14:37.451Z,26.17
2022-12-22T04:17:06.156Z,23.85
2022-12-22T04:19:33.670Z,26.58
2022-12-22T04:22:01.347Z,18.25
2022-12-22T04:24:28.968Z,26.02
2022-12-22T04:26:56.412Z,25.83
2022-12-22T04:29:23.908Z,24.08
2022-12-22T04:31:51.363Z,18.23
2022-12-22T04:34:18.819Z,26.48
2022-12-22T04:36:46.332Z,21.77
2022-12-22T04:39:13.745Z,17.83
2022-12-22T04:41:41.504Z,27.92
2022-12-22T04:44:08.974Z,20.40
2022-12-22T04:46:36.436Z,33.17
2022-12-22T04:49:03.826Z,25.20
2022-12-22T04:51:31.216Z,28.02
2022-12-22T04:53:58.557Z,28.77
2022-12-22T04:56:25.960Z,25.92
2022-12-22T04:58:53.336Z,26.63
2022-12-22T05:01:20.974Z,29.83
2022-12-22T05:03:48.507Z,29.42
2022-12-22T05:06:16.417Z,30.60
2022-12-22T05:08:43.894Z,33.42
2022-12-22T05:11:11.520Z,37.72
2022-12-22T05:13:38.935Z,29.00
2022-12-22T05:16:08.935Z,35.05
2022-12-22T05:18:37.490Z,30.90
2022-12-22T05:21:11.397Z,32.67
2022-12-22T05:23:39.119Z,36.85
2022-12-22T05:26:07.153Z,47.42
2022-12-22T05:28:35.202Z,49.15
2022-12-22T05:31:07.610Z,35.67
2022-12-22T05:33:35.719Z,38.25
2022-12-22T05:36:03.566Z,39.45
2022-12-22T05:38:31.084Z,48.25
2022-12-22T05:41:03.992Z,40.80
2022-12-22T05:43:33.745Z,34.22
2022-12-22T05:46:06.586Z,37.60
2022-12-22T05:48:38.585Z,45.00
2022-12-22T05:51:08.435Z,34.08
2022-12-22T05:53:38.080Z,29.23
2022-12-22T05:56:06.254Z,24.13
2022-12-22T05:58:34.661Z,37.65
2022-12-22T06:01:02.087Z,29.60
2022-12-22T06:03:30.697Z,30.20
2022-12-22T06:05:58.917Z,23.40
2022-12-22T06:08:26.923Z,28.88
2022-12-22T06:10:55.672Z,22.65
2022-12-22T06:13:24.062Z,34.55
2022-12-22T06:15:51.658Z,27.15
2022-12-22T06:18:19.264Z,10.25
2022-12-22T06:20:47.659Z,19.70
2022-12-22T06:23:15.062Z,30.83
2022-12-22T06:25:42.498Z,17.13
2022-12-22T06:28:09.978Z,30.00
2022-12-22T06:30:37.407Z,17.30
2022-12-22T06:33:04.865Z,23.85
2022-12-22T06:35:32.382Z,23.52
2022-12-22T06:37:59.806Z,18.23
2022-12-22T06:40:27.314Z,22.63
2022-12-22T06:43:14.912Z,27.90
2022-12-22T06:45:43.568Z,19.00
2022-12-22T06:48:12.475Z,20.58
2022-12-22T06:50:40.257Z,18.27
2022-12-22T06:53:08.257Z,30.15
2022-12-22T06:55:36.853Z,24.75
2022-12-22T06:58:05.448Z,22.20
2022-12-22T07:00:33.972Z,19.23
2022-12-22T07:03:01.683Z,18.67
2022-12-22T07:05:32.143Z,27.35
2022-12-22T07:08:07.737Z,24.85
2022-12-22T07:10:54.421Z,17.75
2022-12-22T07:13:22.232Z,14.68
2022-12-22T07:15:57.464Z,24.50
2022-12-22T07:18:32.857Z,22.60
2022-12-22T07:21:02.121Z,14.77
2022-12-22T07:23:30.111Z,19.27
2022-12-22T07:25:58.071Z,20.40
2022-12-22T07:28:25.798Z,20.08
2022-12-22T07:30:54.521Z,22.88
2022-12-22T07:33:22.068Z,15.05
2022-12-22T07:36:05.521Z,19.58
2022-12-22T07:38:38.132Z,19.65
2022-12-22T07:41:26.480Z,26.05
2022-12-22T07:43:55.839Z,20.50
2022-12-22T07:46:25.480Z,22.88
2022-12-22T07:49:11.589Z,24.35
2022-12-22T07:51:41.297Z,23.33
2022-12-22T07:54:11.483Z,20.67
2022-12-22T07:56:39.349Z,19.70
2022-12-22T07:59:06.911Z,17.30
2022-12-22T08:01:34.636Z,16.45
2022-12-22T08:04:02.153Z,19.98
2022-12-22T08:06:29.672Z,16.50
2022-12-22T08:08:57.248Z,15.45
2022-12-22T08:11:24.601Z,22.85
2022-12-22T08:13:57.345Z,20.05
2022-12-22T08:16:28.479Z,18.45
2022-12-22T08:18:56.387Z,18.38
2022-12-22T08:21:24.252Z,11.88
2022-12-22T08:23:51.953Z,17.15
2022-12-22T08:26:31.214Z,22.03
2022-12-22T08:29:11.201Z,21.05
2022-12-22T08:31:39.914Z,15.43
2022-12-22T08:34:10.908Z,22.30
2022-12-22T08:36:42.326Z,18.63
2022-12-22T08:39:10.984Z,13.57
2022-12-22T08:41:50.336Z,17.13
2022-12-22T08:44:30.249Z,18.40
2022-12-22T08:46:59.729Z,17.95
2022-12-22T08:49:27.653Z,16.35
2022-12-22T08:51:55.253Z,22.02
2022-12-22T08:54:22.923Z,19.23
2022-12-22T08:56:50.422Z,12.05
2022-12-22T08:59:18.207Z,19.42
2022-12-22T09:01:51.020Z,14.13
2022-12-22T09:04:21.851Z,20.77
2022-12-22T09:06:51.038Z,15.20
2022-12-22T09:09:18.554Z,20.23
2022-12-22T09:11:46.146Z,15.63
2022-12-22T09:14:13.735Z,14.18
2022-12-22T09:16:41.539Z,20.35
2022-12-22T09:19:09.361Z,19.45
2022-12-22T09:21:37.084Z,15.27
2022-12-22T09:24:04.785Z,15.25
2022-12-22T09:26:32.839Z,18.25
2022-12-22T09:29:00.333Z,16.08
2022-12-22T09:31:28.404Z,14.52
2022-12-22T09:33:56.333Z,12.45
2022-12-22T09:36:27.081Z,11.18
2022-12-22T09:38:54.881Z,13.27
2022-12-22T09:41:32.065Z,11.77
2022-12-22T09:44:11.481Z,10.25
2022-12-22T09:46:39.827Z,47.17
2022-12-22T09:49:07.658Z,8.18
2022-12-22T09:51:43.099Z,14.70
2022-12-22T09:54:13.022Z,13.98
2022-12-22T09:56:40.991Z,16.58
2022-12-22T09:59:17.011Z,13.73
2022-12-22T10:02:06.549Z,12.35
2022-12-22T10:04:49.744Z,11.25
2022-12-22T10:07:21.821Z,14.00
2022-12-22T10:09:51.145Z,12.07
2022-12-22T10:12:25.481Z,10.60
2022-12-22T10:14:55.195Z,11.73
2022-12-22T10:17:24.712Z,12.13
2022-12-22T10:19:54.811Z,9.77
2022-12-22T10:22:30.652Z,17.05
2022-12-22T10:25:01.676Z,10.35
2022-12-22T10:27:37.255Z,11.07
2022-12-22T10:30:27.110Z,10.77
2022-12-22T10:33:11.274Z,14.30
2022-12-22T10:35:59.037Z,11.50
2022-12-22T10:38:33.705Z,13.27
2022-12-22T10:41:22.347Z,17.60
2022-12-22T10:43:56.054Z,12.93
2022-12-22T10:46:35.536Z,10.80
2022-12-22T10:49:17.684Z,6.22
2022-12-22T10:51:52.388Z,6.57
2022-12-22T10:54:31.477Z,11.25
2022-12-22T10:57:29.183Z,7.43
2022-12-22T11:00:01.845Z,12.75
2022-12-22T11:02:38.578Z,10.45
2022-12-22T11:05:11.425Z,10.88
2022-12-22T11:07:45.061Z,11.18
2022-12-22T11:10:21.357Z,8.75
2022-12-22T11:13:17.519Z,10.45
2022-12-22T11:15:47.914Z,11.10
2022-12-22T11:18:34.709Z,9.98
2022-12-22T11:21:08.765Z,18.48
2022-12-22T11:24:00.852Z,11.45
2022-12-22T11:27:03.409Z,14.30
2022-12-22T11:30:12.883Z,13.73
2022-12-22T11:33:01.984Z,11.55
2022-12-22T11:35:35.527Z,16.13
2022-12-22T11:38:12.290Z,11.63
2022-12-22T11:40:47.028Z,13.52
2022-12-22T11:43:23.613Z,20.00
2022-12-22T11:45:50.991Z,13.05
2022-12-22T11:48:45.845Z,17.83
2022-12-22T11:51:23.811Z,11.65
2022-12-22T11:53:54.645Z,8.20
2022-12-22T11:56:31.347Z,12.70
2022-12-22T11:59:01.711Z,15.55
2022-12-22T12:01:56.968Z,8.70
2022-12-22T12:04:27.244Z,11.65
2022-12-22T12:07:21.966Z,8.75
2022-12-22T12:10:29.152Z,10.27
2022-12-22T12:13:06.001Z,12.35
2022-12-22T12:15:38.079Z,6.32
2022-12-22T12:18:36.150Z,15.02
2022-12-22T12:21:09.526Z,6.28
2022-12-22T12:23:48.974Z,6.45
2022-12-22T12:26:24.240Z,8.85
2022-12-22T12:29:20.945Z,8.10
2022-12-22T12:32:03.668Z,10.50
2022-12-22T12:34:34.857Z,6.18
2022-12-22T12:37:03.955Z,5.43
2022-12-22T12:39:42.734Z,9.05
2022-12-22T12:42:18.946Z,7.30
2022-12-22T12:44:47.338Z,10.50
2022-12-22T12:47:32.613Z,6.45
2022-12-22T12:50:20.215Z,9.90
2022-12-22T12:52:48.892Z,6.80
2022-12-22T12:55:35.077Z,4.45
2022-12-22T12:58:04.744Z,8.25
2022-12-22T13:00:35.227Z,5.57
2022-12-22T13:03:20.016Z,2.47
2022-12-22T13:06:07.350Z,6.40
2022-12-22T13:09:40.290Z,6.78
2022-12-22T13:12:13.741Z,2.78
2022-12-22T13:15:00.628Z,2.67
2022-12-22T13:17:39.937Z,5.15
2022-12-22T13:20:15.617Z,7.65
2022-12-22T13:22:44.039Z,6.05
2022-12-22T13:25:18.505Z,4.90
2022-12-22T13:27:46.341Z,7.35
2022-12-22T13:30:20.461Z,4.70
2022-12-22T13:32:49.970Z,5.93
2022-12-22T13:35:32.707Z,10.77
2022-12-22T13:38:01.185Z,7.47
2022-12-22T13:40:40.709Z,4.78
2022-12-22T13:43:15.364Z,7.57
2022-12-22T13:45:49.446Z,4.80
2022-12-22T13:48:30.742Z,6.07
2022-12-22T13:51:01.929Z,3.72
2022-12-22T13:56:27.271Z,3.60
2022-12-22T13:58:59.699Z,10.17
2022-12-22T14:01:27.255Z,2.92
2022-12-22T14:04:01.901Z,10.48
2022-12-22T14:06:40.503Z,5.50
2022-12-22T14:09:18.363Z,4.07
2022-12-22T14:12:00.908Z,5.32
2022-12-22T14:14:48.920Z,3.97
2022-12-22T14:17:23.691Z,6.00
2022-12-22T14:19:53.629Z,7.35
2022-12-22T14:22:45.578Z,4.80
2022-12-22T14:25:18.873Z,3.97
2022-12-22T14:27:49.282Z,3.05
2022-12-22T14:30:19.179Z,7.80
2022-12-22T14:32:56.867Z,3.85
2022-12-22T14:35:29.097Z,5.13
2022-12-22T14:38:20.660Z,5.90
2022-12-22T14:40:52.692Z,6.07
2022-12-22T14:43:28.183Z,7.28
2022-12-22T14:46:09.061Z,5.32
2022-12-22T14:48:46.550Z,7.03
2022-12-22T14:51:20.986Z,1.83
2022-12-22T14:53:50.285Z,5.80
2022-12-22T14:56:18.675Z,5.03
2022-12-22T14:58:48.282Z,4.38
2022-12-22T15:01:30.738Z,6.57
2022-12-22T15:04:22.664Z,3.40
2022-12-22T15:06:50.380Z,5.63
2022-12-22T15:09:28.349Z,6.93
2022-12-22T15:12:13.550Z,7.88
2022-12-22T15:14:41.958Z,3.40
2022-12-22T15:17:21.637Z,6.55
2022-12-22T15:19:49.822Z,6.20
2022-12-22T15:22:17.162Z,3.47
2022-12-22T15:24:44.491Z,5.15
2022-12-22T15:27:11.920Z,8.70
2022-12-22T15:29:39.257Z,10.52
2022-12-22T15:32:13.044Z,7.80
2022-12-22T15:34:40.658Z,8.77
2022-12-22T15:37:12.907Z,6.57
2022-12-22T15:39:40.722Z,4.22
2022-12-22T15:42:08.055Z,2.75
2022-12-22T15:44:38.903Z,6.65
2022-12-22T15:47:10.627Z,6.97
2022-12-22T15:49:38.424Z,6.18
2022-12-22T15:52:07.174Z,7.63
2022-12-22T15:54:36.481Z,8.70
2022-12-22T15:57:04.012Z,4.20
2022-12-22T15:59:31.499Z,4.38
2022-12-22T16:02:01.676Z,5.50
2022-12-22T16:04:33.405Z,11.35
2022-12-22T16:07:00.726Z,7.15
2022-12-22T16:09:32.924Z,9.85
2022-12-22T16:12:00.352Z,6.95
2022-12-22T16:14:31.192Z,4.75
2022-12-22T16:17:01.235Z,9.82
2022-12-22T16:19:28.667Z,5.50
2022-12-22T16:21:56.291Z,13.50
2022-12-22T16:24:28.211Z,4.30
2022-12-22T16:26:57.155Z,9.25
2022-12-22T16:29:25.635Z,4.93
2022-12-22T16:31:53.867Z,7.45
2022-12-22T16:34:21.307Z,11.63
2022-12-22T16:36:48.801Z,9.13
2022-12-22T16:39:16.094Z,8.95
2022-12-22T16:41:45.214Z,7.28
2022-12-22T16:47:20.097Z,7.70
2022-12-22T16:49:49.237Z,8.55
2022-12-22T16:52:22.784Z,7.90
2022-12-22T16:54:52.793Z,3.65
2022-12-22T16:57:20.493Z,4.00
2022-12-22T16:59:47.874Z,5.95
2022-12-22T17:02:20.515Z,11.25
2022-12-22T17:04:48.256Z,5.70
2022-12-22T17:07:15.854Z,8.82
2022-12-22T17:09:49.877Z,4.63
2022-12-22T17:12:20.843Z,7.90
2022-12-22T17:14:49.109Z,4.18
2022-12-22T17:17:30.949Z,9.70
2022-12-22T17:20:00.471Z,8.25
2022-12-22T17:22:30.488Z,4.10
2022-12-22T17:25:02.285Z,6.18
2022-12-22T17:27:31.387Z,9.25
2022-12-22T17:30:03.592Z,3.30
2022-12-22T17:32:30.913Z,8.40
2022-12-22T17:34:58.213Z,8.68
2022-12-22T17:37:26.392Z,7.75
2022-12-22T17:40:00.182Z,6.75
2022-12-22T17:42:27.842Z,8.75
2022-12-22T17:44:55.279Z,10.43
2022-12-22T17:47:30.543Z,6.32
2022-12-22T17:49:58.902Z,9.48
2022-12-22T17:52:28.215Z,5.95
2022-12-22T17:54:56.013Z,5.68
2022-12-22T17:57:27.752Z,8.45
2022-12-22T17:59:55.132Z,7.43
2022-12-22T18:02:24.218Z,9.23
2022-12-22T18:04:52.161Z,6.32
2022-12-22T18:07:22.062Z,7.50
2022-12-22T18:09:53.771Z,7.28
2022-12-22T18:12:23.189Z,9.70
2022-12-22T18:14:51.375Z,7.38
2022-12-22T18:17:35.406Z,9.05
2022-12-22T18:20:04.007Z,8.88
2022-12-22T18:22:31.342Z,11.45
2022-12-22T18:24:58.775Z,15.27
2022-12-22T18:27:26.204Z,5.18
2022-12-22T18:29:53.521Z,8.93
2022-12-22T18:32:27.622Z,6.50
2022-12-22T18:34:55.453Z,12.85
2022-12-22T18:37:22.899Z,8.60
2022-12-22T18:39:50.286Z,3.58
2022-12-22T18:42:22.052Z,11.10
2022-12-22T18:44:50.401Z,9.77
2022-12-22T18:47:18.012Z,10.27
2022-12-22T18:49:46.081Z,16.88
2022-12-22T18:52:23.216Z,5.25
2022-12-22T18:54:50.699Z,11.70
2022-12-22T18:57:20.161Z,6.45
2022-12-22T18:59:48.931Z,6.72
2022-12-22T19:02:24.735Z,13.18
2022-12-22T19:04:53.371Z,8.52
2022-12-22T19:07:23.266Z,11.77
2022-12-22T19:09:51.619Z,9.38
2022-12-22T19:12:23.377Z,9.20
2022-12-22T19:14:55.141Z,11.18
2022-12-22T19:17:29.266Z,12.75
2022-12-22T19:19:57.831Z,9.02
2022-12-22T19:22:25.362Z,12.18
2022-12-22T19:24:57.421Z,14.13
2022-12-22T19:27:27.426Z,11.57
2022-12-22T19:30:03.629Z,12.82
2022-12-22T19:32:40.159Z,14.60
2022-12-22T19:35:16.972Z,16.35
2022-12-22T19:37:45.795Z,13.07
2022-12-22T19:40:14.855Z,15.20
2022-12-22T19:42:44.862Z,12.85
2022-12-22T19:45:26.749Z,15.30
2022-12-22T19:47:55.841Z,19.10
2022-12-22T19:50:26.221Z,9.77
2022-12-22T19:52:54.840Z,12.95
2022-12-22T19:55:25.362Z,11.55
2022-12-22T19:57:53.505Z,16.65
2022-12-22T20:00:27.174Z,11.52
2022-12-22T20:02:56.944Z,16.17
2022-12-22T20:05:24.376Z,18.98
2022-12-22T20:07:56.769Z,13.27
2022-12-22T20:10:25.736Z,13.82
2022-12-22T20:12:56.192Z,8.75
2022-12-22T20:15:30.149Z,18.40
2022-12-22T20:17:58.299Z,15.98
2022-12-22T20:20:34.981Z,17.13
2022-12-22T20:23:06.428Z,12.20
2022-12-22T20:25:40.833Z,12.98
2022-12-22T20:28:20.806Z,14.35
2022-12-22T20:30:48.995Z,13.60
2022-12-22T20:33:18.734Z,17.98
2022-12-22T20:35:47.728Z,12.18
2022-12-22T20:38:20.891Z,21.65
2022-12-22T20:40:49.608Z,9.43
2022-12-22T20:43:19.990Z,8.57
2022-12-22T20:45:50.462Z,15.27
2022-12-22T20:48:39.669Z,19.33
2022-12-22T20:51:10.788Z,12.20
2022-12-22T20:53:38.102Z,15.52
2022-12-22T20:56:16.475Z,15.90
2022-12-22T20:58:43.963Z,20.88
2022-12-22T21:01:11.435Z,13.85
2022-12-22T21:03:39.073Z,21.65
2022-12-22T21:06:26.756Z,18.70
2022-12-22T21:08:56.458Z,17.80
2022-12-22T21:11:24.341Z,14.40
2022-12-22T21:13:51.736Z,17.55
2022-12-22T21:16:24.050Z,18.38
2022-12-22T21:18:52.057Z,14.30
2022-12-22T21:21:20.059Z,18.75
2022-12-22T21:23:47.435Z,14.52
2022-12-22T21:26:35.308Z,17.35
2022-12-22T21:29:08.102Z,20.42
2022-12-22T21:31:35.541Z,9.63
2022-12-22T21:34:02.880Z,16.55
2022-12-22T21:36:33.831Z,9.57
2022-12-22T21:39:06.087Z,12.35
2022-12-22T21:41:53.994Z,9.20
2022-12-22T21:44:21.575Z,16.15
2022-12-22T21:46:49.119Z,12.43
2022-12-22T21:49:26.422Z,12.52
2022-12-22T21:51:54.902Z,11.65
2022-12-22T21:54:24.520Z,16.20
2022-12-22T21:56:53.811Z,17.50
2022-12-22T21:59:22.107Z,13.18
2022-12-22T22:01:52.746Z,18.55
2022-12-22T22:04:21.389Z,12.82
2022-12-22T22:06:48.947Z,8.65
2022-12-22T22:09:16.473Z,15.25
2022-12-22T22:12:02.442Z,17.65
2022-12-22T22:14:29.915Z,11.63
2022-12-22T22:16:57.348Z,12.85
2022-12-22T22:19:24.804Z,13.88
2022-12-22T22:21:52.209Z,12.88
2022-12-22T22:24:20.162Z,17.23
2022-12-22T22:26:49.358Z,13.18
2022-12-22T22:29:17.002Z,19.30
2022-12-22T22:31:44.667Z,13.90
2022-12-22T22:34:12.407Z,14.93
2022-12-22T22:36:40.097Z,16.67
2022-12-22T22:39:09.223Z,12.20
2022-12-22T22:41:43.007Z,10.43
2022-12-22T22:44:11.668Z,14.65
2022-12-22T22:46:39.316Z,15.80
2022-12-22T22:49:07.633Z,14.98
2022-12-22T22:51:35.004Z,18.77
2022-12-22T22:54:02.349Z,25.33
2022-12-22T22:56:29.675Z,17.33
2022-12-22T22:58:59.382Z,21.98
2022-12-22T23:01:26.845Z,13.60
2022-12-22T23:03:54.341Z,19.73
2022-12-22T23:06:21.874Z,13.07
2022-12-22T23:08:49.839Z,11.60
2022-12-22T23:11:17.644Z,14.20
2022-12-22T23:13:45.695Z,10.13
2022-12-22T23:16:13.281Z,22.35
2022-12-22T23:18:41.288Z,13.70
2022-12-22T23:21:09.774Z,16.27
2022-12-22T23:23:37.344Z,15.73
2022-12-22T23:26:06.140Z,24.42
2022-12-22T23:28:34.408Z,24.55
2022-12-22T23:31:01.969Z,24.20
2022-12-22T23:33:32.316Z,21.52
2022-12-22T23:35:59.738Z,14.43
2022-12-22T23:38:27.215Z,15.07
2022-12-22T23:41:02.901Z,16.13
2022-12-22T23:43:31.022Z,19.15
2022-12-22T23:45:58.473Z,20.00
2022-12-22T23:48:25.957Z,27.67
2022-12-22T23:50:53.451Z,20.48
2022-12-22T23:53:20.920Z,17.75
2022-12-22T23:55:48.715Z,17.60
2022-12-22T23:58:16.999Z,24.25
